Time;durP1;ratioP1;P1;durP2;ratioP2;P2;SDS_P1;SDS_P2;PMS_P1;PMS_P2;Temp;Humidity;BMP_temperature;BMP_pressure;BME280_temperature;BME280_humidity;BME280_pressure;Samples;Min_cycle;Max_cycle;Signal;HPM_P1;HPM_P2
2021/06/22 00:01:08;;;;;;;4.53;4.07;;;21.70;85.30;;;;;;5051758;28;21240;-47
2021/06/22 00:03:36;;;;;;;5.63;5.13;;;21.50;85.10;;;;;;5052061;28;20625;-48
2021/06/22 00:06:03;;;;;;;5.97;5.40;;;21.30;86.20;;;;;;5051687;28;21282;-48
2021/06/22 00:08:30;;;;;;;4.93;4.57;;;21.20;87.50;;;;;;5051908;28;20641;-48
2021/06/22 00:10:57;;;;;;;4.83;4.17;;;21.10;86.30;;;;;;5051457;28;20669;-48
2021/06/22 00:13:24;;;;;;;5.27;4.77;;;21.00;86.80;;;;;;5036269;28;21006;-48
2021/06/22 00:15:52;;;;;;;4.43;4.13;;;20.90;88.50;;;;;;5045992;28;20945;-48
2021/06/22 00:18:21;;;;;;;5.50;5.10;;;20.80;90.40;;;;;;5053196;28;20626;-48
2021/06/22 00:20:48;;;;;;;5.93;5.47;;;20.70;90.80;;;;;;5055320;28;20662;-48
2021/06/22 00:23:15;;;;;;;5.23;4.73;;;20.70;91.00;;;;;;5051281;28;20638;-48
2021/06/22 00:25:43;;;;;;;5.60;5.20;;;20.60;91.10;;;;;;5050486;28;20650;-48
2021/06/22 00:28:10;;;;;;;6.17;5.70;;;20.60;91.60;;;;;;5049097;28;20630;-48
2021/06/22 00:30:37;;;;;;;6.27;5.77;;;20.70;91.70;;;;;;5043521;28;20623;-48
2021/06/22 00:33:05;;;;;;;6.60;6.10;;;20.60;92.10;;;;;;5043349;28;21035;-47
2021/06/22 00:35:33;;;;;;;6.00;5.50;;;20.50;92.70;;;;;;5051198;28;20781;-47
2021/06/22 00:38:00;;;;;;;6.60;6.10;;;20.40;92.60;;;;;;5051133;28;20679;-48
2021/06/22 00:40:28;;;;;;;5.77;5.27;;;20.40;92.40;;;;;;5048919;28;20683;-48
2021/06/22 00:42:55;;;;;;;6.00;5.50;;;20.30;92.40;;;;;;5051642;28;20630;-48
2021/06/22 00:45:26;;;;;;;5.30;4.80;;;20.30;92.40;;;;;;5051343;28;20727;-48
2021/06/22 00:47:53;;;;;;;4.70;4.30;;;20.40;92.30;;;;;;5051596;28;20687;-49
2021/06/22 00:50:21;;;;;;;4.10;3.77;;;20.50;92.30;;;;;;5051091;28;20630;-48
2021/06/22 00:52:49;;;;;;;3.80;3.50;;;20.90;91.60;;;;;;5051594;28;20695;-48
2021/06/22 00:55:29;;;;;;;3.83;3.53;;;21.20;90.50;;;;;;5050947;28;20658;-48
2021/06/22 00:57:59;;;;;;;3.93;3.63;;;21.10;89.60;;;;;;5051022;28;21126;-47
2021/06/22 01:00:26;;;;;;;4.40;4.10;;;21.00;90.10;;;;;;5046738;28;20635;-47
2021/06/22 01:02:55;;;;;;;5.30;3.03;;;20.80;90.50;;;;;;5042201;28;20680;-48
2021/06/22 01:05:22;;;;;;;3.27;2.97;;;20.70;90.30;;;;;;5050759;28;20646;-48
2021/06/22 01:07:54;;;;;;;3.00;2.80;;;20.70;90.70;;;;;;5050756;28;20700;-47
2021/06/22 01:10:21;;;;;;;3.07;2.87;;;20.60;90.70;;;;;;5050608;28;20639;-47
2021/06/22 01:12:48;;;;;;;5.83;3.23;;;20.60;90.90;;;;;;5050995;28;20668;-48
2021/06/22 01:15:17;;;;;;;3.07;2.87;;;20.60;90.40;;;;;;5050554;28;20633;-46
2021/06/22 01:17:44;;;;;;;5.90;3.07;;;20.50;90.80;;;;;;5050936;28;21202;-49
2021/06/22 01:20:12;;;;;;;3.37;3.07;;;20.40;91.20;;;;;;5049423;28;20626;-48
2021/06/22 01:22:42;;;;;;;3.37;3.07;;;20.30;91.20;;;;;;5050414;28;20630;-49
2021/06/22 01:25:10;;;;;;;3.50;2.80;;;20.40;91.20;;;;;;5050502;28;20748;-49
2021/06/22 01:27:38;;;;;;;2.70;2.50;;;20.30;91.20;;;;;;5050519;28;21224;-48
2021/06/22 01:30:06;;;;;;;4.70;2.63;;;20.40;91.40;;;;;;5049826;28;20622;-47
2021/06/22 01:32:33;;;;;;;3.23;2.63;;;20.40;91.00;;;;;;5030668;28;20627;-47
2021/06/22 01:35:00;;;;;;;3.00;2.80;;;20.30;91.40;;;;;;5030891;28;20725;-47
2021/06/22 01:37:27;;;;;;;3.30;3.10;;;20.20;91.70;;;;;;5049335;28;20658;-48
2021/06/22 01:39:56;;;;;;;3.70;2.80;;;20.10;91.40;;;;;;5049952;28;20634;-47
2021/06/22 01:42:23;;;;;;;2.13;2.03;;;20.00;91.80;;;;;;5049529;28;20626;-48
2021/06/22 01:44:53;;;;;;;2.83;2.53;;;20.00;91.80;;;;;;5049911;28;20622;-48
2021/06/22 01:47:20;;;;;;;3.80;2.63;;;20.00;91.90;;;;;;5049893;28;20638;-49
2021/06/22 01:49:47;;;;;;;2.70;2.50;;;19.90;92.20;;;;;;5036882;28;21016;-49
2021/06/22 01:52:16;;;;;;;3.23;2.93;;;19.90;92.50;;;;;;5043063;28;20677;-48
2021/06/22 01:54:43;;;;;;;3.97;3.37;;;20.00;92.10;;;;;;5050259;28;20878;-49
2021/06/22 01:57:12;;;;;;;3.50;3.00;;;19.90;92.00;;;;;;5050009;28;20666;-48
2021/06/22 01:59:41;;;;;;;2.77;2.37;;;19.80;92.20;;;;;;5048739;28;21193;-49
2021/06/22 02:02:08;;;;;;;2.67;2.17;;;19.80;91.90;;;;;;5049702;28;20681;-49
2021/06/22 02:04:36;;;;;;;2.60;2.20;;;19.70;91.90;;;;;;5051397;28;20652;-49
2021/06/22 02:07:04;;;;;;;2.57;2.37;;;19.80;92.50;;;;;;5048833;28;21267;-48
2021/06/22 02:09:31;;;;;;;2.20;2.00;;;19.80;92.30;;;;;;5045499;28;20687;-48
2021/06/22 02:11:58;;;;;;;2.47;2.27;;;19.90;91.90;;;;;;5049159;28;20625;-48
2021/06/22 02:14:27;;;;;;;2.00;1.90;;;19.90;91.90;;;;;;5050017;28;21188;-48
2021/06/22 02:16:54;;;;;;;3.43;2.03;;;20.00;91.70;;;;;;5049415;28;21210;-49
2021/06/22 02:19:21;;;;;;;3.10;1.90;;;20.00;91.40;;;;;;5048589;28;20685;-49
2021/06/22 02:21:48;;;;;;;2.67;2.20;;;19.90;91.40;;;;;;5049174;28;20625;-48
2021/06/22 02:24:15;;;;;;;1.67;1.57;;;19.80;91.60;;;;;;5049171;28;20934;-49
2021/06/22 02:26:43;;;;;;;1.80;1.70;;;19.80;92.10;;;;;;5049551;28;20657;-48
2021/06/22 02:29:10;;;;;;;2.07;1.87;;;19.70;91.80;;;;;;5048753;28;20619;-46
2021/06/22 02:31:38;;;;;;;2.20;2.10;;;19.60;91.80;;;;;;5049645;28;20741;-47
2021/06/22 02:34:05;;;;;;;2.03;1.83;;;19.50;91.60;;;;;;5049593;28;20696;-47
2021/06/22 02:36:33;;;;;;;2.50;2.30;;;19.50;91.90;;;;;;5049081;28;20662;-48
2021/06/22 02:39:01;;;;;;;2.40;1.80;;;19.40;92.30;;;;;;5049335;28;20693;-46
2021/06/22 02:41:28;;;;;;;3.87;2.07;;;19.40;92.50;;;;;;5049391;28;20677;-47
2021/06/22 02:43:55;;;;;;;2.30;2.10;;;19.30;92.50;;;;;;5049305;28;20614;-47
2021/06/22 02:46:22;;;;;;;2.30;2.20;;;19.30;92.70;;;;;;5049049;28;20722;-47
2021/06/22 02:48:51;;;;;;;2.63;1.83;;;19.30;92.70;;;;;;5048034;28;21139;-47
2021/06/22 02:51:18;;;;;;;5.30;2.37;;;19.20;92.70;;;;;;5048713;28;20610;-47
2021/06/22 02:53:45;;;;;;;2.43;2.23;;;19.30;93.00;;;;;;5049184;28;20969;-47
2021/06/22 02:56:12;;;;;;;2.40;2.27;;;19.20;92.60;;;;;;5049194;28;20715;-47
2021/06/22 02:58:40;;;;;;;2.13;2.03;;;19.20;92.60;;;;;;5048243;28;21184;-48
2021/06/22 03:01:07;;;;;;;2.40;1.80;;;19.20;92.80;;;;;;5049502;28;20630;-49
2021/06/22 03:03:34;;;;;;;2.30;2.10;;;19.10;93.00;;;;;;5048760;28;21166;-49
2021/06/22 03:06:03;;;;;;;2.23;1.63;;;19.10;93.30;;;;;;5048289;28;20701;-48
2021/06/22 03:08:30;;;;;;;2.30;1.47;;;19.20;93.20;;;;;;5048025;28;21201;-48
2021/06/22 03:10:57;;;;;;;2.17;1.70;;;19.20;93.00;;;;;;5048575;28;20634;-48
2021/06/22 03:13:24;;;;;;;3.73;1.97;;;19.30;92.80;;;;;;5048910;28;20695;-49
2021/06/22 03:15:51;;;;;;;3.27;1.73;;;19.30;92.50;;;;;;5048888;28;20777;-49
2021/06/22 03:18:19;;;;;;;1.60;1.50;;;19.30;92.60;;;;;;5048659;28;21542;-49
2021/06/22 03:20:46;;;;;;;1.53;1.33;;;19.30;92.80;;;;;;5048107;28;20626;-48
2021/06/22 03:23:15;;;;;;;1.50;1.40;;;19.30;92.40;;;;;;5048929;28;20653;-48
2021/06/22 03:25:42;;;;;;;2.00;1.60;;;19.30;92.30;;;;;;5044792;28;20731;-48
2021/06/22 03:28:09;;;;;;;1.50;1.40;;;19.20;92.10;;;;;;5052163;28;20978;-47
2021/06/22 03:30:36;;;;;;;1.40;1.30;;;19.20;92.30;;;;;;5051848;28;20627;-49
2021/06/22 03:33:04;;;;;;;1.33;1.23;;;19.10;92.30;;;;;;5052188;28;21243;-48
2021/06/22 03:35:31;;;;;;;1.73;1.40;;;19.30;92.80;;;;;;5051902;28;21063;-49
2021/06/22 03:37:58;;;;;;;2.10;1.77;;;19.20;92.30;;;;;;5052814;28;20654;-48
2021/06/22 03:40:27;;;;;;;1.80;1.70;;;19.10;92.20;;;;;;5050104;28;21163;-49
2021/06/22 03:42:54;;;;;;;1.40;1.30;;;19.00;92.30;;;;;;5053031;28;21012;-48
2021/06/22 03:45:22;;;;;;;1.33;1.23;;;19.00;92.70;;;;;;5052630;28;20712;-49
2021/06/22 03:47:49;;;;;;;2.70;2.20;;;19.10;93.30;;;;;;5052126;28;20634;-48
2021/06/22 03:50:16;;;;;;;3.30;1.70;;;19.10;92.90;;;;;;5048149;28;20622;-48
2021/06/22 03:52:43;;;;;;;1.30;1.20;;;19.20;92.70;;;;;;5042314;28;20680;-47
2021/06/22 03:55:29;;;;;;;9.00;1.97;;;19.30;92.40;;;;;;5051584;28;20633;-48
2021/06/22 03:57:59;;;;;;;1.50;1.40;;;19.30;92.20;;;;;;5050068;28;20787;-49
2021/06/22 04:00:26;;;;;;;2.73;1.67;;;19.10;92.10;;;;;;5041248;28;20619;-48
2021/06/22 04:02:54;;;;;;;1.80;1.53;;;19.10;92.80;;;;;;5038724;28;20646;-49
2021/06/22 04:05:22;;;;;;;2.17;1.97;;;19.30;92.70;;;;;;5050169;28;21193;-49
2021/06/22 04:07:49;;;;;;;2.07;1.43;;;19.30;92.20;;;;;;5051972;28;20735;-48
2021/06/22 04:10:16;;;;;;;1.93;1.20;;;19.30;92.30;;;;;;5050574;28;20630;-47
2021/06/22 04:12:43;;;;;;;1.43;1.33;;;19.30;92.30;;;;;;5049754;28;20691;-47
2021/06/22 04:15:13;;;;;;;1.40;1.30;;;19.20;92.10;;;;;;5051195;28;20629;-48
2021/06/22 04:17:40;;;;;;;1.70;1.60;;;19.20;92.50;;;;;;5071737;28;20725;-46
2021/06/22 04:20:08;;;;;;;1.50;1.40;;;19.20;92.60;;;;;;5054362;28;20664;-47
2021/06/22 04:22:35;;;;;;;2.23;1.30;;;19.30;92.50;;;;;;5048040;28;20634;-48
2021/06/22 04:25:02;;;;;;;1.87;1.60;;;19.30;92.50;;;;;;5031837;28;20693;-47
2021/06/22 04:27:30;;;;;;;1.70;1.40;;;19.30;92.30;;;;;;5031329;28;20615;-47
2021/06/22 04:29:57;;;;;;;1.60;1.10;;;19.30;92.10;;;;;;5045685;28;20630;-48
2021/06/22 04:32:25;;;;;;;1.73;1.00;;;19.30;92.50;;;;;;5047169;28;20676;-48
2021/06/22 04:34:53;;;;;;;1.30;1.20;;;19.30;92.20;;;;;;5050615;28;20637;-48
2021/06/22 04:37:20;;;;;;;2.77;1.30;;;19.40;92.50;;;;;;5047017;28;20678;-48
2021/06/22 04:39:47;;;;;;;1.63;1.40;;;19.70;92.10;;;;;;5039273;28;20626;-48
2021/06/22 04:42:14;;;;;;;2.30;1.63;;;19.80;91.80;;;;;;5051123;28;20719;-49
2021/06/22 04:44:42;;;;;;;3.17;1.20;;;20.00;91.40;;;;;;5050848;28;20757;-48
2021/06/22 04:47:09;;;;;;;1.40;1.30;;;19.80;91.20;;;;;;5050694;28;20742;-47
2021/06/22 04:49:37;;;;;;;1.33;1.23;;;19.70;91.30;;;;;;5050642;28;20638;-48
2021/06/22 04:52:05;;;;;;;1.30;1.20;;;19.70;91.20;;;;;;5039154;28;20787;-48
2021/06/22 04:54:32;;;;;;;3.20;1.40;;;19.50;91.50;;;;;;5041603;28;20723;-48
2021/06/22 04:57:00;;;;;;;3.77;1.30;;;19.50;91.70;;;;;;5032014;28;20655;-47
2021/06/22 04:59:27;;;;;;;1.00;0.90;;;19.60;91.80;;;;;;5038926;28;20626;-46
2021/06/22 05:01:54;;;;;;;2.20;1.33;;;19.80;91.60;;;;;;5051097;28;21236;-48
2021/06/22 05:04:21;;;;;;;1.10;0.97;;;19.70;91.40;;;;;;5050612;28;20695;-47
2021/06/22 05:06:50;;;;;;;1.30;1.20;;;19.60;91.60;;;;;;5056862;28;20694;-48
2021/06/22 05:09:17;;;;;;;1.37;1.27;;;19.50;91.40;;;;;;5040406;28;20683;-47
2021/06/22 05:11:44;;;;;;;1.00;0.90;;;19.50;91.70;;;;;;5046109;28;20633;-48
2021/06/22 05:14:11;;;;;;;1.27;1.00;;;19.60;91.90;;;;;;5050600;28;20994;-49
2021/06/22 05:16:39;;;;;;;1.20;0.80;;;19.60;91.80;;;;;;5046065;28;20767;-48
2021/06/22 05:19:06;;;;;;;3.03;1.20;;;19.60;91.90;;;;;;5050251;28;20700;-50
2021/06/22 05:21:33;;;;;;;1.30;1.20;;;19.70;91.80;;;;;;5050594;28;20623;-48
2021/06/22 05:24:02;;;;;;;0.63;0.63;;;19.90;91.40;;;;;;5050311;28;20630;-49
2021/06/22 05:26:29;;;;;;;1.10;0.70;;;20.00;90.80;;;;;;5043761;28;21233;-48
2021/06/22 05:28:56;;;;;;;2.40;1.20;;;19.90;90.70;;;;;;5049181;28;20666;-50
2021/06/22 05:31:23;;;;;;;0.70;0.70;;;19.90;90.80;;;;;;5050263;28;20688;-49
2021/06/22 05:33:50;;;;;;;0.93;0.77;;;20.10;90.80;;;;;;5049877;28;20637;-50
2021/06/22 05:36:18;;;;;;;1.00;0.90;;;20.10;90.70;;;;;;5050236;28;20777;-50
2021/06/22 05:38:45;;;;;;;3.13;0.90;;;20.40;90.70;;;;;;5050138;28;20654;-49
2021/06/22 05:41:14;;;;;;;1.23;1.00;;;20.40;90.10;;;;;;5050057;28;20634;-47
2021/06/22 05:43:41;;;;;;;1.20;1.00;;;20.40;89.30;;;;;;5049885;28;20642;-47
2021/06/22 05:46:08;;;;;;;2.53;1.00;;;20.30;89.80;;;;;;5049016;28;20654;-46
2021/06/22 05:48:36;;;;;;;1.30;0.97;;;20.20;90.40;;;;;;5049960;28;20630;-48
2021/06/22 05:51:03;;;;;;;1.73;1.20;;;20.30;90.30;;;;;;5050244;28;21159;-48
2021/06/22 05:53:30;;;;;;;1.00;0.90;;;20.50;90.20;;;;;;5050008;28;20626;-49
2021/06/22 05:55:57;;;;;;;1.57;0.77;;;20.60;89.60;;;;;;5031838;28;20663;-48
2021/06/22 05:58:26;;;;;;;1.07;0.80;;;20.60;89.40;;;;;;5029820;28;20678;-46
2021/06/22 06:00:53;;;;;;;1.03;0.93;;;20.90;89.20;;;;;;5029484;28;20634;-46
2021/06/22 06:03:20;;;;;;;1.00;0.90;;;20.80;88.10;;;;;;5029285;28;20627;-47
2021/06/22 06:05:48;;;;;;;1.47;0.80;;;20.80;88.40;;;;;;5044380;28;20658;-48
2021/06/22 06:08:15;;;;;;;0.90;0.77;;;20.80;89.00;;;;;;5049373;28;20648;-47
2021/06/22 06:10:42;;;;;;;2.20;1.10;;;21.00;87.90;;;;;;5049385;28;20676;-47
2021/06/22 06:13:09;;;;;;;1.20;0.80;;;20.90;87.90;;;;;;5049123;28;20703;-47
2021/06/22 06:15:38;;;;;;;1.20;1.10;;;21.00;88.00;;;;;;5035017;28;20663;-48
2021/06/22 06:18:06;;;;;;;1.87;1.00;;;20.90;87.90;;;;;;5028915;28;20666;-49
2021/06/22 06:20:34;;;;;;;1.30;1.20;;;20.80;86.50;;;;;;5029812;28;20713;-49
2021/06/22 06:23:01;;;;;;;0.80;0.70;;;20.80;87.40;;;;;;5028791;28;20694;-49
2021/06/22 06:25:28;;;;;;;1.07;0.90;;;21.00;88.00;;;;;;5044293;28;20792;-48
2021/06/22 06:27:57;;;;;;;0.90;0.80;;;21.10;86.50;;;;;;5049387;28;20772;-48
2021/06/22 06:30:26;;;;;;;1.10;0.60;;;21.20;86.40;;;;;;5049414;28;20618;-48
2021/06/22 06:32:55;;;;;;;1.00;0.77;;;21.30;85.40;;;;;;5049067;28;20691;-49
2021/06/22 06:35:22;;;;;;;1.40;1.30;;;21.30;86.10;;;;;;5034791;28;21001;-48
2021/06/22 06:37:50;;;;;;;1.00;0.90;;;21.30;84.90;;;;;;5028907;28;20631;-48
2021/06/22 06:40:17;;;;;;;0.80;0.80;;;21.50;84.70;;;;;;5040788;28;20630;-49
2021/06/22 06:42:44;;;;;;;1.27;1.00;;;22.20;83.00;;;;;;5049479;28;20622;-48
2021/06/22 06:45:12;;;;;;;1.80;0.77;;;22.20;80.50;;;;;;5048317;28;20634;-49
2021/06/22 06:47:40;;;;;;;0.97;0.87;;;22.00;80.60;;;;;;5049416;28;20669;-48
2021/06/22 06:50:09;;;;;;;2.30;1.10;;;21.80;80.60;;;;;;5048956;28;20698;-49
2021/06/22 06:52:37;;;;;;;0.83;0.70;;;21.70;82.00;;;;;;5049960;28;20633;-49
2021/06/22 06:55:04;;;;;;;1.00;0.90;;;21.60;84.00;;;;;;5034975;28;20663;-48
2021/06/22 06:57:32;;;;;;;0.97;0.87;;;21.60;81.90;;;;;;5029874;28;20623;-49
2021/06/22 06:59:59;;;;;;;1.30;1.20;;;21.60;82.50;;;;;;5033405;28;20728;-49
2021/06/22 07:02:26;;;;;;;1.90;0.63;;;21.70;82.20;;;;;;5033242;28;21167;-49
2021/06/22 07:04:53;;;;;;;0.90;0.90;;;21.70;81.10;;;;;;5045074;28;20629;-49
2021/06/22 07:07:22;;;;;;;1.10;1.00;;;21.60;81.60;;;;;;5076985;22;20750;-54
2021/06/22 07:09:49;;;;;;;1.83;1.10;;;21.60;81.50;;;;;;5074433;28;20621;-54
2021/06/22 07:12:17;;;;;;;1.00;0.87;;;21.50;81.70;;;;;;5074576;28;20616;-51
2021/06/22 07:14:44;;;;;;;1.03;0.90;;;21.40;81.40;;;;;;5072577;28;20637;-52
2021/06/22 07:17:11;;;;;;;2.13;0.90;;;21.30;81.60;;;;;;5073998;28;20698;-50
2021/06/22 07:19:39;;;;;;;1.33;1.10;;;21.30;82.20;;;;;;5074303;28;21002;-53
2021/06/22 07:22:06;;;;;;;1.33;0.70;;;21.40;82.20;;;;;;5073388;28;20665;-53
2021/06/22 07:24:35;;;;;;;1.87;1.10;;;21.50;82.10;;;;;;5066554;28;20622;-51
2021/06/22 07:27:02;;;;;;;1.40;1.20;;;21.70;81.20;;;;;;5054858;28;20746;-51
2021/06/22 07:29:30;;;;;;;1.10;1.00;;;21.80;80.90;;;;;;5067363;28;20687;-55
2021/06/22 07:31:57;;;;;;;1.00;0.77;;;22.20;80.50;;;;;;5074044;28;20629;-55
2021/06/22 07:34:25;;;;;;;1.47;1.07;;;22.30;77.90;;;;;;5073333;28;20985;-52
2021/06/22 07:36:52;;;;;;;1.23;1.13;;;22.60;79.20;;;;;;5072618;28;20664;-52
2021/06/22 07:39:20;;;;;;;3.23;1.50;;;22.60;76.50;;;;;;5074120;28;20648;-52
2021/06/22 07:41:53;;;;;;;1.10;1.00;;;22.70;78.20;;;;;;5073346;28;20637;-52
2021/06/22 07:44:28;;;;;;;1.30;1.03;;;22.90;78.40;;;;;;5072449;28;21347;-52
2021/06/22 07:46:56;;;;;;;1.77;0.90;;;23.20;78.10;;;;;;5073036;28;20656;-52
2021/06/22 07:49:24;;;;;;;0.90;0.80;;;23.30;75.60;;;;;;5074153;28;20620;-52
2021/06/22 07:51:51;;;;;;;1.93;0.87;;;23.00;73.80;;;;;;5072945;28;20629;-50
2021/06/22 07:54:19;;;;;;;0.83;0.83;;;22.80;75.40;;;;;;5074022;28;20995;-52
2021/06/22 07:56:46;;;;;;;0.90;0.73;;;22.60;74.90;;;;;;5072793;28;20649;-54
2021/06/22 07:59:15;;;;;;;3.53;1.50;;;22.40;75.40;;;;;;5071532;28;21060;-55
2021/06/22 08:01:42;;;;;;;1.40;1.20;;;22.30;76.90;;;;;;5072409;28;20618;-55
2021/06/22 08:04:10;;;;;;;1.50;1.40;;;22.30;77.50;;;;;;5072360;28;20633;-53
2021/06/22 08:06:38;;;;;;;1.50;1.23;;;22.10;77.40;;;;;;5072982;28;20656;-53
2021/06/22 08:09:05;;;;;;;1.30;1.20;;;22.20;78.70;;;;;;5071272;28;20620;-53
2021/06/22 08:11:33;;;;;;;2.60;0.83;;;22.30;78.50;;;;;;5072978;28;20625;-52
2021/06/22 08:14:00;;;;;;;1.10;0.60;;;22.50;77.80;;;;;;5073384;28;20644;-54
2021/06/22 08:16:29;;;;;;;0.70;0.67;;;23.00;78.00;;;;;;5073037;28;20718;-56
2021/06/22 08:18:56;;;;;;;0.90;0.77;;;23.10;76.30;;;;;;5073091;28;20672;-52
2021/06/22 08:21:24;;;;;;;0.60;0.50;;;23.10;74.20;;;;;;5071729;28;20662;-52
2021/06/22 08:23:51;;;;;;;3.57;1.33;;;23.00;74.60;;;;;;5072019;28;20659;-52
2021/06/22 08:26:19;;;;;;;1.53;1.30;;;23.00;75.50;;;;;;5070757;28;21074;-52
2021/06/22 08:28:46;;;;;;;1.13;0.93;;;23.00;74.10;;;;;;5071007;28;20617;-53
2021/06/22 08:31:13;;;;;;;1.40;1.10;;;23.00;75.30;;;;;;5070048;28;20621;-56
2021/06/22 08:33:42;;;;;;;1.83;1.10;;;23.00;73.70;;;;;;5072514;28;21053;-56
2021/06/22 08:36:10;;;;;;;1.07;0.93;;;22.90;74.10;;;;;;5071196;28;20702;-53
2021/06/22 08:38:40;;;;;;;1.80;1.17;;;22.70;72.90;;;;;;5071949;28;20662;-53
2021/06/22 08:41:08;;;;;;;2.27;1.23;;;22.50;73.10;;;;;;5071905;28;20641;-56
2021/06/22 08:43:36;;;;;;;1.10;0.83;;;22.40;74.90;;;;;;5072928;28;20635;-53
2021/06/22 08:46:05;;;;;;;1.10;1.00;;;22.30;75.80;;;;;;5072513;28;20617;-53
2021/06/22 08:48:32;;;;;;;2.60;1.10;;;22.30;75.10;;;;;;5071883;28;20659;-52
2021/06/22 08:51:01;;;;;;;0.83;0.80;;;22.30;75.40;;;;;;5072300;28;20671;-53
2021/06/22 08:53:30;;;;;;;4.43;1.10;;;22.30;76.20;;;;;;5072243;28;20624;-53
2021/06/22 08:55:57;;;;;;;1.83;0.80;;;22.30;75.30;;;;;;5072248;28;20621;-52
2021/06/22 08:58:24;;;;;;;1.13;0.90;;;22.40;75.50;;;;;;5072612;28;20625;-52
2021/06/22 09:00:52;;;;;;;2.33;0.93;;;22.40;75.50;;;;;;5072350;28;20707;-52
2021/06/22 09:03:23;;;;;;;3.17;1.07;;;22.30;75.00;;;;;;5072638;28;20629;-56
2021/06/22 09:05:53;;;;;;;1.27;0.87;;;22.30;75.70;;;;;;5072785;28;20679;-52
2021/06/22 09:08:23;;;;;;;1.20;1.10;;;22.30;75.20;;;;;;5072122;28;21496;-52
2021/06/22 09:10:52;;;;;;;1.50;1.17;;;22.40;75.10;;;;;;5073413;28;20629;-52
2021/06/22 09:13:21;;;;;;;3.20;1.70;;;22.40;74.90;;;;;;5072607;28;20682;-52
2021/06/22 09:15:49;;;;;;;1.30;0.90;;;22.40;75.90;;;;;;5072336;28;20706;-51
2021/06/22 09:18:33;;;;;;;1.23;0.93;;;22.40;76.50;;;;;;5072234;28;20660;-53
2021/06/22 09:21:01;;;;;;;4.67;1.70;;;22.40;76.10;;;;;;5070804;28;20653;-52
2021/06/22 09:23:31;;;;;;;1.20;1.10;;;22.30;76.30;;;;;;5073702;28;20617;-52
2021/06/22 09:25:58;;;;;;;0.93;0.87;;;22.20;75.80;;;;;;5073313;28;20632;-51
2021/06/22 09:28:28;;;;;;;1.50;1.20;;;22.20;76.90;;;;;;5071960;28;20644;-52
2021/06/22 09:31:00;;;;;;;1.40;1.30;;;22.20;77.20;;;;;;5072961;28;20625;-53
2021/06/22 09:33:30;;;;;;;1.50;1.40;;;22.30;76.90;;;;;;5072777;28;20709;-55
2021/06/22 09:36:06;;;;;;;1.40;1.20;;;22.30;76.90;;;;;;5072613;28;20632;-54
2021/06/22 09:38:37;;;;;;;2.27;1.50;;;22.30;76.30;;;;;;5072494;28;21040;-53
2021/06/22 09:41:12;;;;;;;0.90;0.90;;;22.20;76.60;;;;;;5072760;28;20653;-56
2021/06/22 09:43:44;;;;;;;3.40;1.50;;;22.00;77.00;;;;;;5070434;28;21290;-56
2021/06/22 09:46:12;;;;;;;1.63;1.07;;;21.90;78.30;;;;;;5072500;28;20621;-53
2021/06/22 09:48:59;;;;;;;1.30;1.10;;;22.10;78.80;;;;;;5072015;28;21113;-53
2021/06/22 09:51:35;;;;;;;2.37;1.30;;;22.50;76.90;;;;;;5071790;28;20621;-53
2021/06/22 09:54:25;;;;;;;1.97;1.17;;;22.50;76.40;;;;;;5072051;28;20662;-55
2021/06/22 09:57:02;;;;;;;3.40;3.20;;;22.60;76.40;;;;;;5066336;28;21445;-51
2021/06/22 09:59:31;;;;;;;1.70;1.60;;;22.50;76.10;;;;;;5072012;28;20637;-52
2021/06/22 10:02:10;;;;;;;1.70;1.60;;;22.40;75.70;;;;;;5071037;28;20650;-57
2021/06/22 10:04:41;;;;;;;1.23;1.13;;;22.40;76.40;;;;;;5071749;28;20665;-55
2021/06/22 10:07:10;;;;;;;1.70;1.33;;;22.60;77.20;;;;;;5071028;28;20768;-54
2021/06/22 10:09:39;;;;;;;1.50;1.20;;;22.90;75.80;;;;;;5071308;28;21234;-52
2021/06/22 10:12:08;;;;;;;1.03;0.93;;;23.00;75.00;;;;;;5071118;28;20617;-52
2021/06/22 10:14:37;;;;;;;1.53;1.10;;;23.10;74.70;;;;;;5071738;28;20625;-50
2021/06/22 10:17:06;;;;;;;2.73;2.03;;;23.10;73.70;;;;;;5069444;28;20661;-53
2021/06/22 10:19:33;;;;;;;1.47;1.33;;;23.00;73.70;;;;;;5071553;28;20665;-56
2021/06/22 10:22:01;;;;;;;1.43;1.20;;;22.90;74.60;;;;;;5071287;28;20621;-51
2021/06/22 10:24:29;;;;;;;0.90;0.90;;;22.70;74.90;;;;;;5071660;28;20682;-52
2021/06/22 10:26:59;;;;;;;2.80;1.60;;;22.70;75.50;;;;;;5071040;28;21193;-51
2021/06/22 10:29:27;;;;;;;1.70;1.60;;;22.80;75.00;;;;;;5070896;28;20625;-50
2021/06/22 10:31:56;;;;;;;2.00;1.70;;;22.80;75.10;;;;;;5071554;28;20675;-55
2021/06/22 10:34:24;;;;;;;1.50;1.20;;;22.90;74.60;;;;;;5071587;28;20694;-53
2021/06/22 10:37:00;;;;;;;1.60;1.47;;;22.90;74.80;;;;;;5071151;28;20660;-56
2021/06/22 10:39:30;;;;;;;2.40;1.27;;;23.10;74.40;;;;;;5070886;28;20628;-52
2021/06/22 10:42:05;;;;;;;1.63;1.13;;;23.30;74.60;;;;;;5071293;28;20683;-53
2021/06/22 10:44:36;;;;;;;1.77;1.67;;;23.50;73.10;;;;;;5071281;28;20650;-52
2021/06/22 10:47:27;;;;;;;1.50;1.40;;;23.50;72.50;;;;;;5070960;28;20653;-52
2021/06/22 10:50:24;;;;;;;2.13;1.60;;;23.40;73.30;;;;;;5071055;28;21032;-56
2021/06/22 10:53:08;;;;;;;1.70;1.60;;;23.30;73.20;;;;;;5071390;28;20656;-52
2021/06/22 10:56:16;;;;;;;2.83;1.30;;;23.60;72.60;;;;;;5070974;28;20624;-56
2021/06/22 10:59:03;;;;;;;2.00;1.90;;;23.70;72.30;;;;;;5071462;28;20973;-52
2021/06/22 11:01:30;;;;;;;2.27;1.50;;;23.70;71.70;;;;;;5071014;28;20649;-50
2021/06/22 11:04:07;;;;;;;1.73;1.63;;;23.70;72.00;;;;;;5071443;28;20637;-51
2021/06/22 11:06:34;;;;;;;1.60;1.50;;;23.60;71.80;;;;;;5070919;28;20745;-53
2021/06/22 11:09:18;;;;;;;1.47;1.37;;;23.60;72.00;;;;;;5071492;28;20625;-52
2021/06/22 11:11:46;;;;;;;1.97;1.30;;;23.80;71.40;;;;;;5070935;28;20980;-54
2021/06/22 11:14:17;;;;;;;1.93;1.30;;;24.00;70.60;;;;;;5070241;28;20679;-52
2021/06/22 11:16:44;;;;;;;2.03;1.27;;;24.00;70.50;;;;;;5070849;28;20681;-54
2021/06/22 11:19:13;;;;;;;3.80;1.80;;;23.80;71.40;;;;;;5071137;28;20690;-53
2021/06/22 11:21:54;;;;;;;2.77;2.20;;;23.60;71.70;;;;;;5070357;28;21209;-53
2021/06/22 11:24:26;;;;;;;3.43;1.40;;;23.50;72.50;;;;;;5071802;28;20674;-53
2021/06/22 11:27:11;;;;;;;2.00;1.60;;;23.40;73.30;;;;;;5071205;28;20714;-52
2021/06/22 11:29:53;;;;;;;2.20;1.53;;;23.40;72.80;;;;;;5070936;28;20646;-56
2021/06/22 11:32:36;;;;;;;2.83;2.13;;;23.40;72.70;;;;;;5071516;28;20976;-51
2021/06/22 11:35:04;;;;;;;2.27;1.63;;;23.30;73.70;;;;;;5071356;28;20605;-53
2021/06/22 11:37:32;;;;;;;3.40;3.10;;;23.20;74.30;;;;;;5070598;28;21049;-57
2021/06/22 11:40:04;;;;;;;2.13;1.50;;;23.00;75.30;;;;;;5069791;28;21218;-52
2021/06/22 11:42:36;;;;;;;2.30;1.53;;;23.10;75.70;;;;;;5069639;28;21073;-56
2021/06/22 11:45:25;;;;;;;3.67;1.87;;;23.50;74.10;;;;;;5073663;28;20635;-52
2021/06/22 11:48:00;;;;;;;1.70;1.60;;;23.50;72.70;;;;;;5072721;28;20656;-51
2021/06/22 11:50:37;;;;;;;3.30;1.60;;;23.30;73.60;;;;;;5073925;28;20677;-52
2021/06/22 11:53:09;;;;;;;2.83;1.70;;;23.10;74.70;;;;;;5073796;28;20628;-52
2021/06/22 11:55:42;;;;;;;1.83;1.73;;;23.10;75.30;;;;;;5074479;28;20629;-50
2021/06/22 11:58:10;;;;;;;1.70;1.60;;;23.00;75.10;;;;;;5073645;28;20700;-52
2021/06/22 12:00:38;;;;;;;2.50;1.97;;;22.90;76.40;;;;;;5074127;28;21069;-55
2021/06/22 12:03:07;;;;;;;1.53;1.43;;;22.80;76.10;;;;;;5073868;28;21173;-52
2021/06/22 12:05:35;;;;;;;1.70;1.60;;;22.60;76.60;;;;;;5073544;28;20628;-52
2021/06/22 12:08:04;;;;;;;1.77;1.67;;;22.80;77.10;;;;;;5073752;28;20676;-54
2021/06/22 12:10:47;;;;;;;2.00;1.63;;;23.00;76.50;;;;;;5072785;28;20619;-51
2021/06/22 12:13:28;;;;;;;3.57;1.50;;;23.10;76.00;;;;;;5073685;28;20633;-52
2021/06/22 12:15:57;;;;;;;2.33;2.13;;;22.90;76.30;;;;;;5072411;28;20625;-51
2021/06/22 12:18:29;;;;;;;7.30;1.90;;;22.90;76.90;;;;;;5073648;28;20663;-53
2021/06/22 12:20:59;;;;;;;1.50;1.40;;;22.90;77.50;;;;;;5073005;28;20662;-54
2021/06/22 12:23:28;;;;;;;1.80;1.53;;;23.00;77.60;;;;;;5074184;28;20621;-53
2021/06/22 12:25:56;;;;;;;4.10;2.47;;;23.10;78.20;;;;;;5072127;28;20628;-53
2021/06/22 12:28:24;;;;;;;2.40;2.20;;;23.10;78.90;;;;;;5073561;28;20715;-53
2021/06/22 12:30:57;;;;;;;3.20;2.77;;;22.90;80.30;;;;;;5073439;28;21238;-56
2021/06/22 12:33:25;;;;;;;3.13;2.20;;;22.70;81.50;;;;;;5073315;28;20632;-53
2021/06/22 12:35:53;;;;;;;3.80;2.40;;;22.60;80.40;;;;;;5073230;28;20632;-52
2021/06/22 12:38:21;;;;;;;3.23;2.10;;;22.80;79.80;;;;;;5072582;28;20637;-52
2021/06/22 12:40:50;;;;;;;2.83;2.50;;;22.70;80.90;;;;;;5073123;28;20657;-52
2021/06/22 12:43:18;;;;;;;2.40;2.20;;;23.00;79.60;;;;;;5073672;28;20624;-52
2021/06/22 12:46:01;;;;;;;4.63;2.23;;;23.00;80.30;;;;;;5073469;28;20621;-52
2021/06/22 12:48:29;;;;;;;2.60;2.40;;;22.80;81.00;;;;;;5073065;28;20638;-51
2021/06/22 12:51:19;;;;;;;2.83;2.60;;;22.90;80.40;;;;;;5073220;28;20633;-53
2021/06/22 12:53:53;;;;;;;2.67;2.47;;;23.20;79.60;;;;;;5072179;28;21089;-55
2021/06/22 12:56:22;;;;;;;2.43;2.20;;;23.50;79.30;;;;;;5072137;28;20656;-51
2021/06/22 12:58:52;;;;;;;2.53;2.33;;;23.30;82.50;;;;;;5073375;28;20621;-52